الصفحة الرئيسية
METAR-TAF:

METAR-TAF

مطار :

مطار فاكلاف هافيل الدولي

براغ, التشيك

دائرة عرض: 50-06N, خط طول: 014-15E, ارتفاع: 365 متر

مراقبة الطقس الحالي

تاريخ ووقت الإصدار 34 دقيقة قبل الساعة 17:30UTC
ريح 7 عقدة من الشرق
درجة الحرارة 25°درجة مئوية
الرطوبة 41%
ضغط 1016 hPa
الرؤية 10 كم أو أكثر
الغيوم لا تقل 1500 م ولا وجود لمزنة ركامية السحاب الأسود

METAR: LKPR 161730Z 10007KT CAVOK 25/11 Q1016 NOSIG

زمن: 20:04 (18:04 UTC)

توقعات

تاريخ ووقت الإصدار 1ساعة و 4 دقيقة قبل الساعة 17:00UTC
التوقعات صالحة من16 الساعة 18 UTC إلى 18 الساعة 00 UTC
ريح 6 عقدة من الشرق/الجنوب الشرقي
الرؤية 10 كم أو أكثر
الغيوم لا تقل 1500 م ولا وجود لمزنة ركامية السحاب الأسود
أصبح
من 16 الساعة 20 UTC إلى 16 الساعة 22 UTC
ريح 2 عقدةمن اتجاهات متغيرة

TAF: LKPR 161700Z 1618/1800 12006KT CAVOK BECMG 1620/1622 VRB02KT

أرصاد الطقس والتوقعات من أكثر من 4000 مطار (تقارير الطقس للمطار METAR والتنبؤ بالطقس بالمطارTAF).

المحطات المتاحة هي النقط الصفراء والحمراء على الخريطة.

حرك المؤشر فوق النقطة لمعرفة اسم المحطة.

ثم انقر لمعرفة أرصاد وتوقعات الطقس.

لتغيير الخارطة: اضغط على الأزرار الخضراء مع رمز الصليب الأسود للتكبير. على الزر الأخضر مع شرطة للتصغير، أو على الأسهم الخضراء للخرائط المجاورة.


METAR-TAF: